KAL2246 RJFF-RKSI
Flight info
| Callsign | KAL2246 |
|---|---|
| Flight time | 1h 13m |
| Altitude | 30000 |
| Route | DGC G339 BEETL Y208 INVOK Z91 PSN Y782 BITUX Z53 BASEM Y685 GUKDO GUKDO2H |
| Aircraft | B738/M-SDE2E3FGHIRWXY/LB1 |
Departure
| Time | 2026-05-05 00:08 |
|---|---|
| Airport | Fukuoka Airport (RJFF) |
Arrival
| Time | 2026-05-05 01:22 |
|---|---|
| Airport | Incheon International Airport (RKSI) |
| Time | Latitude | Longitude | Altitude | Speed | Heading |
|---|---|---|---|---|---|
| 2026-05-04 23:39 | 33.58440 | 130.44600 | 34 ft | 0 kts | 240° |
| 2026-05-04 23:56 | 33.58439 | 130.44598 | 34 ft | 1 kts | 240° |
| 2026-05-04 23:57 | 33.58443 | 130.44607 | 34 ft | 3 kts | 240° |
| 2026-05-04 23:58 | 33.58453 | 130.44628 | 32 ft | 3 kts | 240° |
| 2026-05-04 23:58 | 33.58463 | 130.44650 | 34 ft | 3 kts | 240° |
| 2026-05-04 23:58 | 33.58472 | 130.44670 | 32 ft | 3 kts | 258° |
| 2026-05-04 23:58 | 33.58472 | 130.44692 | 32 ft | 3 kts | 296° |
| 2026-05-04 23:59 | 33.58464 | 130.44705 | 33 ft | 1 kts | 330° |
| 2026-05-04 23:59 | 33.58453 | 130.44713 | 34 ft | 2 kts | 330° |
| 2026-05-04 23:59 | 33.58449 | 130.44715 | 36 ft | 0 kts | 330° |
| 2026-05-04 23:59 | 33.58444 | 130.44719 | 34 ft | 0 kts | 329° |
| 2026-05-05 00:01 | 33.58445 | 130.44718 | 34 ft | 1 kts | 329° |
| 2026-05-05 00:01 | 33.58465 | 130.44705 | 35 ft | 6 kts | 337° |
| 2026-05-05 00:02 | 33.58519 | 130.44689 | 34 ft | 10 kts | 346° |
| 2026-05-05 00:02 | 33.58599 | 130.44665 | 36 ft | 13 kts | 346° |
| 2026-05-05 00:02 | 33.58682 | 130.44621 | 35 ft | 13 kts | 333° |
| 2026-05-05 00:02 | 33.58764 | 130.44568 | 32 ft | 14 kts | 331° |
| 2026-05-05 00:03 | 33.58849 | 130.44512 | 30 ft | 14 kts | 330° |
| 2026-05-05 00:03 | 33.58930 | 130.44457 | 31 ft | 13 kts | 330° |
| 2026-05-05 00:03 | 33.59009 | 130.44404 | 29 ft | 13 kts | 330° |
| 2026-05-05 00:03 | 33.59088 | 130.44351 | 29 ft | 13 kts | 330° |
| 2026-05-05 00:04 | 33.59164 | 130.44300 | 30 ft | 12 kts | 332° |
| 2026-05-05 00:04 | 33.59239 | 130.44250 | 29 ft | 12 kts | 330° |
| 2026-05-05 00:04 | 33.59312 | 130.44202 | 28 ft | 12 kts | 327° |
| 2026-05-05 00:04 | 33.59384 | 130.44156 | 29 ft | 12 kts | 332° |
| 2026-05-05 00:05 | 33.59453 | 130.44110 | 29 ft | 11 kts | 330° |
| 2026-05-05 00:05 | 33.59494 | 130.44084 | 28 ft | 0 kts | 335° |
| 2026-05-05 00:06 | 33.59501 | 130.44080 | 28 ft | 3 kts | 335° |
| 2026-05-05 00:06 | 33.59534 | 130.44073 | 27 ft | 6 kts | 7° |
| 2026-05-05 00:06 | 33.59568 | 130.44098 | 27 ft | 6 kts | 53° |
| 2026-05-05 00:07 | 33.59573 | 130.44144 | 27 ft | 6 kts | 116° |
| 2026-05-05 00:07 | 33.59558 | 130.44160 | 28 ft | 0 kts | 149° |
| 2026-05-05 00:08 | 33.59446 | 130.44237 | 29 ft | 55 kts | 150° |
| 2026-05-05 00:08 | 33.58858 | 130.44639 | 30 ft | 136 kts | 150° |
| 2026-05-05 00:08 | 33.57878 | 130.45309 | 412 ft | 173 kts | 150° |
| 2026-05-05 00:08 | 33.56803 | 130.46060 | 1270 ft | 183 kts | 150° |
| 2026-05-05 00:09 | 33.55675 | 130.46850 | 2259 ft | 194 kts | 151° |
| 2026-05-05 00:09 | 33.54423 | 130.47707 | 2561 ft | 221 kts | 151° |
| 2026-05-05 00:09 | 33.53033 | 130.48638 | 3058 ft | 236 kts | 151° |
| 2026-05-05 00:09 | 33.51541 | 130.49643 | 3567 ft | 252 kts | 151° |
| 2026-05-05 00:10 | 33.49996 | 130.50688 | 4450 ft | 256 kts | 150° |
| 2026-05-05 00:10 | 33.48445 | 130.51742 | 5426 ft | 259 kts | 151° |
| 2026-05-05 00:10 | 33.46852 | 130.52824 | 6245 ft | 267 kts | 151° |
| 2026-05-05 00:10 | 33.45211 | 130.53938 | 7029 ft | 274 kts | 151° |
| 2026-05-05 00:11 | 33.43539 | 130.55025 | 7842 ft | 278 kts | 158° |
| 2026-05-05 00:11 | 33.41628 | 130.55388 | 8619 ft | 281 kts | 187° |
| 2026-05-05 00:11 | 33.40377 | 130.54992 | 9145 ft | 283 kts | 206° |
| 2026-05-05 00:11 | 33.38427 | 130.52904 | 10203 ft | 287 kts | 237° |
| 2026-05-05 00:12 | 33.37724 | 130.51532 | 10517 ft | 299 kts | 240° |
| 2026-05-05 00:12 | 33.36906 | 130.49142 | 10663 ft | 325 kts | 262° |
| 2026-05-05 00:12 | 33.37080 | 130.46381 | 10881 ft | 348 kts | 288° |
| 2026-05-05 00:12 | 33.38978 | 130.43161 | 11189 ft | 377 kts | 322° |
| 2026-05-05 00:13 | 33.41284 | 130.41612 | 11816 ft | 383 kts | 332° |
| 2026-05-05 00:13 | 33.43679 | 130.40164 | 12443 ft | 387 kts | 331° |
| 2026-05-05 00:13 | 33.45315 | 130.39187 | 12873 ft | 391 kts | 335° |
| 2026-05-05 00:13 | 33.47941 | 130.38459 | 13467 ft | 398 kts | 356° |
| 2026-05-05 00:14 | 33.50757 | 130.38512 | 14142 ft | 402 kts | 0° |
| 2026-05-05 00:14 | 33.53538 | 130.38619 | 14692 ft | 406 kts | 0° |
| 2026-05-05 00:14 | 33.56376 | 130.38717 | 15278 ft | 410 kts | 359° |
| 2026-05-05 00:14 | 33.59240 | 130.38794 | 15872 ft | 412 kts | 359° |
| 2026-05-05 00:15 | 33.62117 | 130.38855 | 16457 ft | 416 kts | 359° |
| 2026-05-05 00:15 | 33.65021 | 130.38896 | 17029 ft | 418 kts | 356° |
| 2026-05-05 00:15 | 33.67857 | 130.38250 | 17551 ft | 416 kts | 336° |
| 2026-05-05 00:15 | 33.70360 | 130.36553 | 18154 ft | 412 kts | 320° |
| 2026-05-05 00:16 | 33.72613 | 130.34412 | 18714 ft | 414 kts | 318° |
| 2026-05-05 00:16 | 33.74858 | 130.32232 | 19198 ft | 417 kts | 318° |
| 2026-05-05 00:16 | 33.77122 | 130.30029 | 19688 ft | 419 kts | 318° |
| 2026-05-05 00:16 | 33.79398 | 130.27828 | 20191 ft | 422 kts | 318° |
| 2026-05-05 00:17 | 33.81698 | 130.25617 | 20689 ft | 424 kts | 317° |
| 2026-05-05 00:17 | 33.84013 | 130.23400 | 21146 ft | 427 kts | 318° |
| 2026-05-05 00:17 | 33.86350 | 130.21170 | 21600 ft | 430 kts | 317° |
| 2026-05-05 00:17 | 33.88698 | 130.18931 | 22042 ft | 432 kts | 317° |
| 2026-05-05 00:18 | 33.91061 | 130.16678 | 22488 ft | 434 kts | 317° |
| 2026-05-05 00:18 | 33.93433 | 130.14415 | 22911 ft | 437 kts | 317° |
| 2026-05-05 00:18 | 33.95796 | 130.12157 | 23239 ft | 441 kts | 317° |
| 2026-05-05 00:18 | 33.98207 | 130.09854 | 23671 ft | 442 kts | 317° |
| 2026-05-05 00:19 | 34.00622 | 130.07545 | 24041 ft | 444 kts | 317° |
| 2026-05-05 00:19 | 34.03050 | 130.05222 | 24400 ft | 445 kts | 317° |
| 2026-05-05 00:19 | 34.05475 | 130.02898 | 24746 ft | 447 kts | 317° |
| 2026-05-05 00:19 | 34.07916 | 130.00559 | 25054 ft | 449 kts | 317° |
| 2026-05-05 00:20 | 34.10368 | 129.98206 | 25343 ft | 451 kts | 317° |
| 2026-05-05 00:20 | 34.12823 | 129.95848 | 25666 ft | 453 kts | 317° |
| 2026-05-05 00:20 | 34.15296 | 129.93472 | 25992 ft | 454 kts | 317° |
| 2026-05-05 00:20 | 34.17770 | 129.91092 | 26299 ft | 455 kts | 317° |
| 2026-05-05 00:21 | 34.20252 | 129.88703 | 26595 ft | 457 kts | 316° |
| 2026-05-05 00:21 | 34.22742 | 129.86305 | 26899 ft | 458 kts | 316° |
| 2026-05-05 00:21 | 34.25205 | 129.83931 | 27310 ft | 456 kts | 316° |
| 2026-05-05 00:21 | 34.27685 | 129.81544 | 27755 ft | 454 kts | 316° |
| 2026-05-05 00:22 | 34.30159 | 129.79180 | 28246 ft | 452 kts | 317° |
| 2026-05-05 00:22 | 34.32622 | 129.76832 | 28679 ft | 450 kts | 317° |
| 2026-05-05 00:22 | 34.35079 | 129.74488 | 29102 ft | 449 kts | 317° |
| 2026-05-05 00:22 | 34.37528 | 129.72147 | 29540 ft | 448 kts | 316° |
| 2026-05-05 00:23 | 34.39968 | 129.69813 | 29997 ft | 446 kts | 316° |
| 2026-05-05 00:23 | 34.42402 | 129.67479 | 30194 ft | 448 kts | 316° |
| 2026-05-05 00:23 | 34.44853 | 129.65125 | 30193 ft | 449 kts | 316° |
| 2026-05-05 00:24 | 34.49736 | 129.60437 | 30183 ft | 444 kts | 316° |
| 2026-05-05 00:24 | 34.54574 | 129.55784 | 30203 ft | 444 kts | 316° |
| 2026-05-05 00:25 | 34.59409 | 129.51123 | 30192 ft | 444 kts | 316° |
| 2026-05-05 00:25 | 34.64249 | 129.46452 | 30193 ft | 445 kts | 316° |
| 2026-05-05 00:26 | 34.69065 | 129.41797 | 30195 ft | 445 kts | 316° |
| 2026-05-05 00:26 | 34.73915 | 129.37102 | 30184 ft | 445 kts | 316° |
| 2026-05-05 00:27 | 34.78762 | 129.32405 | 30186 ft | 445 kts | 316° |
| 2026-05-05 00:27 | 34.83620 | 129.27711 | 30190 ft | 446 kts | 317° |
| 2026-05-05 00:28 | 34.88488 | 129.23013 | 30206 ft | 446 kts | 317° |
| 2026-05-05 00:28 | 34.93350 | 129.18310 | 30192 ft | 446 kts | 317° |
| 2026-05-05 00:29 | 34.98182 | 129.13626 | 30187 ft | 446 kts | 317° |
| 2026-05-05 00:29 | 35.03049 | 129.08900 | 30190 ft | 446 kts | 317° |
| 2026-05-05 00:30 | 35.07905 | 129.04178 | 30190 ft | 446 kts | 317° |
| 2026-05-05 00:30 | 35.12869 | 128.99565 | 30178 ft | 451 kts | 324° |
| 2026-05-05 00:31 | 35.18481 | 128.96159 | 30206 ft | 455 kts | 330° |
| 2026-05-05 00:31 | 35.24216 | 128.92862 | 30189 ft | 456 kts | 330° |
| 2026-05-05 00:32 | 35.29946 | 128.89506 | 30179 ft | 456 kts | 329° |
| 2026-05-05 00:32 | 35.35671 | 128.86117 | 30191 ft | 457 kts | 329° |
| 2026-05-05 00:33 | 35.41396 | 128.82717 | 30172 ft | 457 kts | 329° |
| 2026-05-05 00:33 | 35.47089 | 128.79335 | 30184 ft | 458 kts | 330° |
| 2026-05-05 00:34 | 35.52818 | 128.75927 | 30169 ft | 458 kts | 330° |
| 2026-05-05 00:34 | 35.58556 | 128.72507 | 30177 ft | 457 kts | 330° |
| 2026-05-05 00:35 | 35.64272 | 128.69093 | 30173 ft | 457 kts | 330° |
| 2026-05-05 00:35 | 35.69997 | 128.65667 | 30187 ft | 457 kts | 330° |
| 2026-05-05 00:36 | 35.75715 | 128.62241 | 30169 ft | 457 kts | 330° |
| 2026-05-05 00:36 | 35.81301 | 128.58530 | 30160 ft | 453 kts | 321° |
| 2026-05-05 00:37 | 35.85911 | 128.53408 | 30171 ft | 448 kts | 312° |
| 2026-05-05 00:37 | 35.90357 | 128.48014 | 30179 ft | 448 kts | 312° |
| 2026-05-05 00:38 | 35.94824 | 128.42647 | 30167 ft | 448 kts | 313° |
| 2026-05-05 00:38 | 35.99312 | 128.37291 | 30161 ft | 449 kts | 313° |
| 2026-05-05 00:39 | 36.03803 | 128.31933 | 30162 ft | 449 kts | 313° |
| 2026-05-05 00:39 | 36.08295 | 128.26565 | 30166 ft | 449 kts | 313° |
| 2026-05-05 00:40 | 36.12789 | 128.21183 | 30155 ft | 449 kts | 313° |
| 2026-05-05 00:40 | 36.17278 | 128.15797 | 30165 ft | 450 kts | 313° |
| 2026-05-05 00:41 | 36.21775 | 128.10393 | 30161 ft | 450 kts | 313° |
| 2026-05-05 00:41 | 36.26415 | 128.05237 | 30143 ft | 455 kts | 324° |
| 2026-05-05 00:41 | 36.29233 | 128.03425 | 30164 ft | 459 kts | 335° |
| 2026-05-05 00:42 | 36.32303 | 128.02267 | 30155 ft | 465 kts | 347° |
| 2026-05-05 00:42 | 36.38767 | 128.01390 | 30152 ft | 467 kts | 352° |
| 2026-05-05 00:43 | 36.45244 | 128.00621 | 30157 ft | 467 kts | 351° |
| 2026-05-05 00:43 | 36.51699 | 127.99753 | 30142 ft | 467 kts | 351° |
| 2026-05-05 00:44 | 36.58154 | 127.98863 | 30156 ft | 466 kts | 351° |
| 2026-05-05 00:44 | 36.64570 | 127.97987 | 30149 ft | 466 kts | 351° |
| 2026-05-05 00:45 | 36.71024 | 127.97105 | 30151 ft | 466 kts | 351° |
| 2026-05-05 00:45 | 36.77127 | 127.96268 | 30157 ft | 466 kts | 352° |
| 2026-05-05 00:46 | 36.81087 | 127.95581 | 30132 ft | 463 kts | 343° |
| 2026-05-05 00:46 | 36.83902 | 127.94122 | 30167 ft | 457 kts | 327° |
| 2026-05-05 00:46 | 36.86231 | 127.91895 | 30137 ft | 454 kts | 313° |
| 2026-05-05 00:47 | 36.89251 | 127.86828 | 30158 ft | 452 kts | 302° |
| 2026-05-05 00:47 | 36.91876 | 127.81940 | 30154 ft | 452 kts | 303° |
| 2026-05-05 00:48 | 36.95328 | 127.75776 | 30145 ft | 452 kts | 304° |
| 2026-05-05 00:48 | 36.98748 | 127.69714 | 30152 ft | 452 kts | 304° |
| 2026-05-05 00:49 | 37.02065 | 127.63806 | 30148 ft | 452 kts | 304° |
| 2026-05-05 00:49 | 37.05502 | 127.57659 | 30148 ft | 453 kts | 304° |
| 2026-05-05 00:50 | 37.09001 | 127.51386 | 30136 ft | 454 kts | 304° |
| 2026-05-05 00:50 | 37.12525 | 127.45059 | 30149 ft | 455 kts | 304° |
| 2026-05-05 00:51 | 37.16866 | 127.39386 | 30153 ft | 456 kts | 330° |
| 2026-05-05 00:51 | 37.19810 | 127.37920 | 30157 ft | 458 kts | 346° |
| 2026-05-05 00:51 | 37.22942 | 127.37476 | 30155 ft | 460 kts | 360° |
| 2026-05-05 00:51 | 37.26111 | 127.38019 | 30141 ft | 462 kts | 15° |
| 2026-05-05 00:52 | 37.29099 | 127.39506 | 30170 ft | 463 kts | 23° |
| 2026-05-05 00:52 | 37.35118 | 127.42181 | 30147 ft | 449 kts | 1° |
| 2026-05-05 00:52 | 37.38166 | 127.42012 | 30144 ft | 429 kts | 347° |
| 2026-05-05 00:53 | 37.40908 | 127.40792 | 30164 ft | 410 kts | 331° |
| 2026-05-05 00:53 | 37.43202 | 127.38782 | 30155 ft | 395 kts | 317° |
| 2026-05-05 00:53 | 37.44992 | 127.36226 | 29906 ft | 387 kts | 303° |
| 2026-05-05 00:53 | 37.46197 | 127.33252 | 29672 ft | 378 kts | 290° |
| 2026-05-05 00:54 | 37.46857 | 127.30070 | 29278 ft | 375 kts | 279° |
| 2026-05-05 00:54 | 37.46953 | 127.26811 | 28917 ft | 372 kts | 264° |
| 2026-05-05 00:54 | 37.46534 | 127.23600 | 28558 ft | 369 kts | 259° |
| 2026-05-05 00:54 | 37.46003 | 127.20454 | 28154 ft | 366 kts | 258° |
| 2026-05-05 00:55 | 37.45461 | 127.17380 | 27799 ft | 363 kts | 258° |
| 2026-05-05 00:55 | 37.44925 | 127.14299 | 27441 ft | 360 kts | 259° |
| 2026-05-05 00:55 | 37.44403 | 127.11231 | 27080 ft | 357 kts | 259° |
| 2026-05-05 00:55 | 37.43893 | 127.08181 | 26713 ft | 354 kts | 259° |
| 2026-05-05 00:56 | 37.43393 | 127.05157 | 26363 ft | 352 kts | 259° |
| 2026-05-05 00:56 | 37.42898 | 127.02150 | 26017 ft | 349 kts | 259° |
| 2026-05-05 00:56 | 37.42406 | 126.99163 | 25664 ft | 348 kts | 259° |
| 2026-05-05 00:56 | 37.41916 | 126.96197 | 25320 ft | 346 kts | 259° |
| 2026-05-05 00:57 | 37.41592 | 126.94236 | 25085 ft | 344 kts | 259° |
| 2026-05-05 00:57 | 37.41016 | 126.91321 | 24731 ft | 344 kts | 252° |
| 2026-05-05 00:57 | 37.39877 | 126.87566 | 24239 ft | 343 kts | 249° |
| 2026-05-05 00:57 | 37.38956 | 126.84811 | 23891 ft | 342 kts | 248° |
| 2026-05-05 00:58 | 37.38346 | 126.82989 | 23634 ft | 341 kts | 248° |
| 2026-05-05 00:58 | 37.37432 | 126.80236 | 23243 ft | 339 kts | 248° |
| 2026-05-05 00:58 | 37.36541 | 126.77501 | 22866 ft | 337 kts | 248° |
| 2026-05-05 00:58 | 37.35663 | 126.74776 | 22504 ft | 335 kts | 248° |
| 2026-05-05 00:59 | 37.34793 | 126.72062 | 22165 ft | 333 kts | 249° |
| 2026-05-05 00:59 | 37.33963 | 126.69461 | 21838 ft | 331 kts | 249° |
| 2026-05-05 00:59 | 37.33110 | 126.66782 | 21496 ft | 329 kts | 249° |
| 2026-05-05 00:59 | 37.32265 | 126.64125 | 21165 ft | 327 kts | 249° |
| 2026-05-05 01:00 | 37.31423 | 126.61482 | 20819 ft | 325 kts | 248° |
| 2026-05-05 01:00 | 37.30586 | 126.58852 | 20500 ft | 323 kts | 248° |
| 2026-05-05 01:00 | 37.29752 | 126.56239 | 20173 ft | 322 kts | 248° |
| 2026-05-05 01:00 | 37.28921 | 126.53633 | 19851 ft | 320 kts | 248° |
| 2026-05-05 01:01 | 37.28189 | 126.51340 | 19844 ft | 312 kts | 248° |
| 2026-05-05 01:01 | 37.27377 | 126.48802 | 19857 ft | 320 kts | 248° |
| 2026-05-05 01:01 | 37.26540 | 126.46185 | 19633 ft | 323 kts | 248° |
| 2026-05-05 01:01 | 37.25689 | 126.43529 | 19006 ft | 333 kts | 247° |
| 2026-05-05 01:02 | 37.24820 | 126.40823 | 18604 ft | 334 kts | 247° |
| 2026-05-05 01:02 | 37.23954 | 126.38126 | 18247 ft | 332 kts | 247° |
| 2026-05-05 01:02 | 37.23106 | 126.35437 | 17882 ft | 330 kts | 250° |
| 2026-05-05 01:02 | 37.22784 | 126.32644 | 17521 ft | 330 kts | 272° |
| 2026-05-05 01:03 | 37.22958 | 126.29754 | 17216 ft | 326 kts | 274° |
| 2026-05-05 01:03 | 37.23131 | 126.26941 | 16721 ft | 329 kts | 273° |
| 2026-05-05 01:03 | 37.23289 | 126.24102 | 16476 ft | 324 kts | 273° |
| 2026-05-05 01:03 | 37.23461 | 126.21317 | 16308 ft | 316 kts | 279° |
| 2026-05-05 01:04 | 37.24230 | 126.18785 | 16150 ft | 309 kts | 303° |
| 2026-05-05 01:04 | 37.27367 | 126.15314 | 15836 ft | 295 kts | 325° |
| 2026-05-05 01:04 | 37.29031 | 126.13864 | 15749 ft | 286 kts | 325° |
| 2026-05-05 01:05 | 37.30649 | 126.12452 | 15522 ft | 283 kts | 324° |
| 2026-05-05 01:05 | 37.32254 | 126.11031 | 15216 ft | 283 kts | 324° |
| 2026-05-05 01:05 | 37.33853 | 126.09605 | 14952 ft | 281 kts | 324° |
| 2026-05-05 01:05 | 37.35447 | 126.08179 | 14507 ft | 283 kts | 324° |
| 2026-05-05 01:06 | 37.37052 | 126.06760 | 14154 ft | 280 kts | 328° |
| 2026-05-05 01:06 | 37.38851 | 126.05967 | 13875 ft | 271 kts | 357° |
| 2026-05-05 01:06 | 37.40679 | 126.06302 | 13496 ft | 265 kts | 25° |
| 2026-05-05 01:06 | 37.42132 | 126.07660 | 13069 ft | 261 kts | 53° |
| 2026-05-05 01:07 | 37.43123 | 126.09551 | 12663 ft | 259 kts | 60° |
| 2026-05-05 01:07 | 37.44034 | 126.11530 | 12195 ft | 261 kts | 61° |
| 2026-05-05 01:07 | 37.44934 | 126.13515 | 11781 ft | 261 kts | 61° |
| 2026-05-05 01:07 | 37.45823 | 126.15489 | 11447 ft | 258 kts | 61° |
| 2026-05-05 01:08 | 37.46555 | 126.17549 | 11134 ft | 258 kts | 81° |
| 2026-05-05 01:08 | 37.46489 | 126.19736 | 10904 ft | 254 kts | 110° |
| 2026-05-05 01:08 | 37.45586 | 126.21583 | 10636 ft | 246 kts | 141° |
| 2026-05-05 01:08 | 37.44210 | 126.22833 | 10382 ft | 244 kts | 150° |
| 2026-05-05 01:09 | 37.42771 | 126.23958 | 10127 ft | 243 kts | 150° |
| 2026-05-05 01:09 | 37.41323 | 126.25057 | 9864 ft | 242 kts | 153° |
| 2026-05-05 01:09 | 37.39741 | 126.25660 | 9532 ft | 239 kts | 182° |
| 2026-05-05 01:09 | 37.38171 | 126.25136 | 9272 ft | 233 kts | 214° |
| 2026-05-05 01:10 | 37.37097 | 126.23666 | 9053 ft | 229 kts | 244° |
| 2026-05-05 01:10 | 37.36520 | 126.21811 | 8777 ft | 229 kts | 250° |
| 2026-05-05 01:10 | 37.36046 | 126.19890 | 8472 ft | 230 kts | 256° |
| 2026-05-05 01:10 | 37.35617 | 126.17960 | 8243 ft | 228 kts | 252° |
| 2026-05-05 01:11 | 37.35143 | 126.16066 | 8013 ft | 227 kts | 251° |
| 2026-05-05 01:11 | 37.34686 | 126.14175 | 7777 ft | 226 kts | 258° |
| 2026-05-05 01:11 | 37.34807 | 126.12217 | 7492 ft | 229 kts | 291° |
| 2026-05-05 01:11 | 37.35775 | 126.10636 | 7229 ft | 234 kts | 323° |
| 2026-05-05 01:12 | 37.37299 | 126.09930 | 6971 ft | 239 kts | 355° |
| 2026-05-05 01:12 | 37.38941 | 126.10292 | 6720 ft | 242 kts | 18° |
| 2026-05-05 01:12 | 37.40512 | 126.11068 | 6470 ft | 242 kts | 21° |
| 2026-05-05 01:12 | 37.42067 | 126.11880 | 6195 ft | 243 kts | 21° |
| 2026-05-05 01:13 | 37.43625 | 126.12702 | 5946 ft | 242 kts | 21° |
| 2026-05-05 01:13 | 37.45178 | 126.13521 | 5709 ft | 242 kts | 21° |
| 2026-05-05 01:13 | 37.46708 | 126.14323 | 5463 ft | 241 kts | 21° |
| 2026-05-05 01:13 | 37.48277 | 126.15141 | 5228 ft | 241 kts | 21° |
| 2026-05-05 01:14 | 37.49815 | 126.15936 | 5075 ft | 234 kts | 21° |
| 2026-05-05 01:14 | 37.51264 | 126.16681 | 5015 ft | 222 kts | 21° |
| 2026-05-05 01:14 | 37.52672 | 126.17404 | 4784 ft | 217 kts | 21° |
| 2026-05-05 01:14 | 37.54065 | 126.18114 | 4506 ft | 215 kts | 21° |
| 2026-05-05 01:15 | 37.55454 | 126.18820 | 4200 ft | 215 kts | 21° |
| 2026-05-05 01:15 | 37.56843 | 126.19525 | 3907 ft | 215 kts | 21° |
| 2026-05-05 01:15 | 37.58106 | 126.20517 | 3593 ft | 216 kts | 43° |
| 2026-05-05 01:15 | 37.59238 | 126.21762 | 3282 ft | 216 kts | 41° |
| 2026-05-05 01:16 | 37.60382 | 126.22982 | 3040 ft | 216 kts | 41° |
| 2026-05-05 01:16 | 37.61542 | 126.24214 | 3003 ft | 218 kts | 41° |
| 2026-05-05 01:16 | 37.62568 | 126.25590 | 2971 ft | 213 kts | 65° |
| 2026-05-05 01:16 | 37.62855 | 126.27340 | 2812 ft | 201 kts | 103° |
| 2026-05-05 01:17 | 37.62384 | 126.28941 | 2547 ft | 192 kts | 122° |
| 2026-05-05 01:17 | 37.61809 | 126.30427 | 2372 ft | 185 kts | 121° |
| 2026-05-05 01:17 | 37.61263 | 126.31862 | 2179 ft | 178 kts | 121° |
| 2026-05-05 01:17 | 37.60586 | 126.33083 | 1963 ft | 164 kts | 148° |
| 2026-05-05 01:18 | 37.59707 | 126.33866 | 1925 ft | 148 kts | 149° |
| 2026-05-05 01:18 | 37.58854 | 126.34659 | 1965 ft | 156 kts | 149° |
| 2026-05-05 01:18 | 37.57982 | 126.35452 | 1944 ft | 156 kts | 149° |
| 2026-05-05 01:18 | 37.57108 | 126.36237 | 1933 ft | 151 kts | 150° |
| 2026-05-05 01:19 | 37.56271 | 126.36985 | 1921 ft | 149 kts | 150° |
| 2026-05-05 01:19 | 37.55424 | 126.37739 | 1755 ft | 149 kts | 150° |
| 2026-05-05 01:19 | 37.54577 | 126.38494 | 1548 ft | 148 kts | 149° |
| 2026-05-05 01:19 | 37.53737 | 126.39242 | 1355 ft | 148 kts | 148° |
| 2026-05-05 01:20 | 37.52894 | 126.39997 | 1141 ft | 150 kts | 148° |
| 2026-05-05 01:20 | 37.52054 | 126.40756 | 943 ft | 148 kts | 147° |
| 2026-05-05 01:20 | 37.51219 | 126.41496 | 735 ft | 145 kts | 147° |
| 2026-05-05 01:20 | 37.50402 | 126.42231 | 553 ft | 143 kts | 146° |
| 2026-05-05 01:21 | 37.49592 | 126.42959 | 332 ft | 144 kts | 146° |
| 2026-05-05 01:21 | 37.48776 | 126.43682 | 156 ft | 142 kts | 147° |
| 2026-05-05 01:21 | 37.47975 | 126.44391 | 35 ft | 133 kts | 146° |
| 2026-05-05 01:21 | 37.47303 | 126.44989 | 30 ft | 98 kts | 144° |
| 2026-05-05 01:22 | 37.46879 | 126.45366 | 32 ft | 60 kts | 144° |
| 2026-05-05 01:22 | 37.46584 | 126.45628 | 31 ft | 39 kts | 145° |
| 2026-05-05 01:22 | 37.46382 | 126.45772 | 31 ft | 32 kts | 161° |
| 2026-05-05 01:22 | 37.46210 | 126.45809 | 31 ft | 19 kts | 176° |
| 2026-05-05 01:23 | 37.46161 | 126.45813 | 31 ft | 0 kts | 172° |
| 2026-05-05 01:24 | 37.46160 | 126.45813 | 31 ft | 1 kts | 172° |
| 2026-05-05 01:24 | 37.46136 | 126.45818 | 30 ft | 5 kts | 172° |
| 2026-05-05 01:25 | 37.46098 | 126.45825 | 31 ft | 5 kts | 171° |
| 2026-05-05 01:25 | 37.46062 | 126.45832 | 31 ft | 5 kts | 171° |
| 2026-05-05 01:25 | 37.46025 | 126.45834 | 31 ft | 5 kts | 190° |
| 2026-05-05 01:25 | 37.45993 | 126.45807 | 31 ft | 6 kts | 232° |
| 2026-05-05 01:26 | 37.45969 | 126.45765 | 31 ft | 6 kts | 235° |
| 2026-05-05 01:26 | 37.45934 | 126.45702 | 32 ft | 11 kts | 230° |
| 2026-05-05 01:26 | 37.45890 | 126.45623 | 32 ft | 11 kts | 235° |
| 2026-05-05 01:26 | 37.45847 | 126.45545 | 32 ft | 11 kts | 235° |
| 2026-05-05 01:27 | 37.45832 | 126.45462 | 32 ft | 10 kts | 301° |
| 2026-05-05 01:27 | 37.45889 | 126.45406 | 30 ft | 10 kts | 325° |
| 2026-05-05 01:27 | 37.45947 | 126.45355 | 32 ft | 11 kts | 324° |
| 2026-05-05 01:27 | 37.46022 | 126.45288 | 30 ft | 16 kts | 324° |
| 2026-05-05 01:28 | 37.46118 | 126.45202 | 29 ft | 17 kts | 324° |
| 2026-05-05 01:28 | 37.46214 | 126.45116 | 31 ft | 17 kts | 324° |
| 2026-05-05 01:28 | 37.46307 | 126.45033 | 32 ft | 16 kts | 324° |
| 2026-05-05 01:28 | 37.46396 | 126.44954 | 32 ft | 15 kts | 324° |
| 2026-05-05 01:29 | 37.46481 | 126.44876 | 32 ft | 15 kts | 324° |
| 2026-05-05 01:29 | 37.46563 | 126.44804 | 32 ft | 14 kts | 325° |
| 2026-05-05 01:29 | 37.46642 | 126.44735 | 31 ft | 14 kts | 326° |
| 2026-05-05 01:29 | 37.46709 | 126.44670 | 30 ft | 11 kts | 305° |
| 2026-05-05 01:30 | 37.46696 | 126.44584 | 30 ft | 10 kts | 234° |
| 2026-05-05 01:30 | 37.46654 | 126.44512 | 32 ft | 10 kts | 234° |
| 2026-05-05 01:30 | 37.46619 | 126.44436 | 29 ft | 10 kts | 244° |
| 2026-05-05 01:30 | 37.46581 | 126.44365 | 32 ft | 10 kts | 234° |
| 2026-05-05 01:31 | 37.46543 | 126.44298 | 32 ft | 9 kts | 235° |
| 2026-05-05 01:31 | 37.46506 | 126.44231 | 32 ft | 9 kts | 235° |
| 2026-05-05 01:31 | 37.46470 | 126.44167 | 30 ft | 9 kts | 234° |
| 2026-05-05 01:31 | 37.46435 | 126.44105 | 32 ft | 9 kts | 234° |
| 2026-05-05 01:32 | 37.46431 | 126.44033 | 32 ft | 10 kts | 302° |
| 2026-05-05 01:32 | 37.46492 | 126.43965 | 32 ft | 13 kts | 325° |
| 2026-05-05 01:32 | 37.46569 | 126.43898 | 30 ft | 13 kts | 325° |
| 2026-05-05 01:32 | 37.46642 | 126.43831 | 31 ft | 13 kts | 314° |
| 2026-05-05 01:33 | 37.46634 | 126.43733 | 32 ft | 12 kts | 234° |
| 2026-05-05 01:33 | 37.46639 | 126.43660 | 32 ft | 9 kts | 336° |
| 2026-05-05 01:33 | 37.46649 | 126.43629 | 32 ft | 4 kts | 220° |
| 2026-05-05 01:33 | 37.46622 | 126.43609 | 32 ft | 5 kts | 211° |
| 2026-05-05 01:34 | 37.46607 | 126.43579 | 32 ft | 4 kts | 286° |
| 2026-05-05 01:34 | 37.46625 | 126.43560 | 30 ft | 1 kts | 324° |
| 2026-05-05 01:34 | 37.46630 | 126.43555 | 31 ft | 0 kts | 324° |